Time;durP1;ratioP1;P1;durP2;ratioP2;P2;SDS_P1;SDS_P2;PMS_P1;PMS_P2;Temp;Humidity;BMP_temperature;BMP_pressure;BME280_temperature;BME280_humidity;BME280_pressure;Samples;Min_cycle;Max_cycle;Signal;HPM_P1;HPM_P2
2023/05/11 00:01:50;;;;;;;7.43;5.10;;;13.50;99.90;;;;;;4170128;28;20285;-76
2023/05/11 00:03:52;;;;;;;8.43;5.07;;;13.50;99.90;;;;;;4171215;28;20208;-76
2023/05/11 00:05:54;;;;;;;7.30;4.93;;;13.50;99.90;;;;;;4170082;28;20308;-76
2023/05/11 00:07:56;;;;;;;6.70;5.00;;;13.50;99.90;;;;;;4170605;28;20204;-76
2023/05/11 00:09:58;;;;;;;5.50;4.23;;;13.50;99.90;;;;;;4171471;28;20262;-76
2023/05/11 00:12:01;;;;;;;6.17;4.63;;;13.50;99.90;;;;;;4173673;28;20646;-76
2023/05/11 00:14:04;;;;;;;6.67;4.93;;;13.40;99.90;;;;;;4175139;28;20776;-76
2023/05/11 00:16:06;;;;;;;5.70;4.50;;;13.40;99.90;;;;;;4176639;28;20227;-76
2023/05/11 00:18:08;;;;;;;5.97;4.47;;;13.40;99.90;;;;;;4178398;28;20237;-76
2023/05/11 00:20:10;;;;;;;7.03;5.13;;;13.50;99.90;;;;;;4174739;28;20272;-76
2023/05/11 00:22:12;;;;;;;6.20;4.67;;;13.40;99.90;;;;;;4176773;28;20235;-76
2023/05/11 00:24:14;;;;;;;6.63;4.93;;;13.50;99.90;;;;;;4172065;28;20730;-76
2023/05/11 00:26:16;;;;;;;6.87;4.70;;;13.40;99.90;;;;;;4170365;28;20237;-76
2023/05/11 00:28:20;;;;;;;7.47;5.40;;;13.50;99.90;;;;;;4169585;28;20678;-76
2023/05/11 00:30:22;;;;;;;5.63;4.27;;;13.40;99.90;;;;;;4170779;28;20215;-76
2023/05/11 00:32:24;;;;;;;6.63;4.80;;;13.40;99.90;;;;;;4171033;28;20291;-76
2023/05/11 00:34:26;;;;;;;7.57;4.47;;;13.40;99.90;;;;;;4172455;28;20248;-75
2023/05/11 00:36:28;;;;;;;6.00;4.67;;;13.40;99.90;;;;;;4167181;28;20756;-76
2023/05/11 00:38:30;;;;;;;6.07;4.83;;;13.40;99.90;;;;;;4170958;28;20215;-76
2023/05/11 00:40:32;;;;;;;5.47;4.40;;;13.40;99.90;;;;;;4171314;28;20694;-76
2023/05/11 00:42:34;;;;;;;5.97;4.17;;;13.40;99.90;;;;;;4170353;28;20338;-76
2023/05/11 00:44:37;;;;;;;5.87;4.57;;;13.40;99.90;;;;;;4172267;28;20352;-76
2023/05/11 00:46:39;;;;;;;6.00;4.70;;;13.40;99.90;;;;;;4170933;28;21496;-76
2023/05/11 00:48:42;;;;;;;6.43;4.87;;;13.40;99.90;;;;;;4171101;28;20653;-76
2023/05/11 00:50:45;;;;;;;6.53;4.80;;;13.40;99.90;;;;;;4174614;28;20797;-76
2023/05/11 00:52:47;;;;;;;6.23;4.70;;;13.40;99.90;;;;;;4174376;28;20302;-76
2023/05/11 00:54:49;;;;;;;5.97;4.53;;;13.40;99.90;;;;;;4170232;28;20318;-76
2023/05/11 00:56:51;;;;;;;7.43;5.00;;;13.40;99.90;;;;;;4170921;28;20212;-76
2023/05/11 00:58:53;;;;;;;5.80;4.17;;;13.40;99.90;;;;;;4171828;28;20261;-76
2023/05/11 01:00:56;;;;;;;5.90;4.60;;;13.40;99.90;;;;;;4172485;28;20307;-76
2023/05/11 01:03:00;;;;;;;5.60;3.70;;;13.40;99.90;;;;;;4170308;28;20293;-76
2023/05/11 01:05:02;;;;;;;5.47;4.13;;;13.40;99.90;;;;;;4169213;28;20256;-76
2023/05/11 01:07:10;;;;;;;5.73;4.30;;;13.40;99.90;;;;;;4173405;28;20297;-76
2023/05/11 01:09:22;;;;;;;6.73;4.60;;;13.40;99.90;;;;;;4172987;28;20210;-76
2023/05/11 01:11:31;;;;;;;6.30;4.27;;;13.40;99.90;;;;;;4171357;28;20215;-76
2023/05/11 01:13:37;;;;;;;6.90;4.53;;;13.40;99.90;;;;;;4170036;28;20304;-76
2023/05/11 01:15:46;;;;;;;6.83;4.80;;;13.40;99.90;;;;;;4171130;28;20265;-76
2023/05/11 01:17:57;;;;;;;6.10;4.47;;;13.40;99.90;;;;;;4169128;28;20739;-76
2023/05/11 01:20:06;;;;;;;5.67;4.50;;;13.40;99.90;;;;;;4171034;28;20305;-76
2023/05/11 01:22:22;;;;;;;5.53;4.43;;;13.40;99.90;;;;;;4172584;28;20216;-77
2023/05/11 01:24:36;;;;;;;5.60;4.23;;;13.30;99.90;;;;;;4170174;28;20323;-76
2023/05/11 01:26:59;;;;;;;5.30;4.13;;;13.40;99.90;;;;;;4168161;28;20935;-75
2023/05/11 01:29:46;;;;;;;5.70;4.10;;;13.40;99.90;;;;;;4172795;28;20254;-76
2023/05/11 01:31:50;;;;;;;6.63;4.10;;;13.40;99.90;;;;;;4149275;28;20212;-76
2023/05/11 01:33:57;;;;;;;6.57;5.10;;;13.40;99.90;;;;;;4165689;28;20241;-76
2023/05/11 01:36:08;;;;;;;8.20;5.67;;;13.40;99.90;;;;;;4167807;28;20266;-76
2023/05/11 01:38:13;;;;;;;7.10;5.37;;;13.30;99.90;;;;;;4169755;28;20206;-75
2023/05/11 01:40:17;;;;;;;6.60;5.13;;;13.30;99.90;;;;;;4168204;28;20774;-75
2023/05/11 01:42:24;;;;;;;7.47;5.40;;;13.30;99.90;;;;;;4171145;28;20569;-76
2023/05/11 01:44:33;;;;;;;6.27;4.73;;;13.30;99.90;;;;;;4179759;28;20303;-76
2023/05/11 01:46:35;;;;;;;6.67;4.83;;;13.30;99.90;;;;;;4176571;28;20289;-76
2023/05/11 01:48:44;;;;;;;8.77;5.43;;;13.30;99.90;;;;;;4177232;28;20222;-76
2023/05/11 01:50:47;;;;;;;7.73;5.60;;;13.30;99.90;;;;;;4182464;28;20223;-76
2023/05/11 01:52:51;;;;;;;7.17;5.43;;;13.30;99.90;;;;;;4179588;28;20203;-76
2023/05/11 01:54:55;;;;;;;6.93;5.37;;;13.30;99.90;;;;;;4175576;28;20206;-76
2023/05/11 01:56:58;;;;;;;7.73;5.27;;;13.30;99.90;;;;;;4177338;28;20322;-76
2023/05/11 01:59:00;;;;;;;7.07;4.93;;;13.30;99.90;;;;;;4177378;28;20256;-76
2023/05/11 02:01:04;;;;;;;6.57;5.13;;;13.30;99.90;;;;;;4174510;28;20215;-76
2023/05/11 02:03:08;;;;;;;7.50;5.17;;;13.30;99.90;;;;;;4179667;28;20224;-76
2023/05/11 02:05:12;;;;;;;7.57;4.83;;;13.30;99.90;;;;;;4176967;28;20245;-76
2023/05/11 02:07:16;;;;;;;6.23;4.37;;;13.30;99.90;;;;;;4174256;28;20208;-75
2023/05/11 02:09:20;;;;;;;6.37;4.63;;;13.30;99.90;;;;;;4173797;28;20728;-76
2023/05/11 02:11:23;;;;;;;6.60;4.80;;;13.30;99.90;;;;;;4174404;28;20203;-76
2023/05/11 02:13:27;;;;;;;6.60;4.93;;;13.30;99.90;;;;;;4173405;28;20574;-76
2023/05/11 02:15:30;;;;;;;6.37;4.80;;;13.30;99.90;;;;;;4175339;28;20329;-76
2023/05/11 02:17:34;;;;;;;6.50;5.00;;;13.30;99.90;;;;;;4170828;28;20208;-76
2023/05/11 02:19:37;;;;;;;5.50;4.30;;;13.30;99.90;;;;;;4171522;28;20307;-76
2023/05/11 02:21:43;;;;;;;6.63;4.90;;;13.30;99.90;;;;;;4175719;28;20204;-76
2023/05/11 02:23:47;;;;;;;7.33;5.37;;;13.30;99.90;;;;;;4170994;28;20236;-76
2023/05/11 02:25:49;;;;;;;8.27;6.03;;;13.30;99.90;;;;;;4175249;28;20236;-76
2023/05/11 02:27:51;;;;;;;8.73;5.37;;;13.30;99.90;;;;;;4174630;28;20713;-76
2023/05/11 02:29:54;;;;;;;10.30;7.50;;;13.20;99.90;;;;;;4172211;28;20219;-76
2023/05/11 02:32:00;;;;;;;8.67;6.07;;;13.30;99.90;;;;;;4173453;28;20234;-75
2023/05/11 02:34:13;;;;;;;9.43;6.60;;;13.20;99.90;;;;;;4175148;28;20250;-76
2023/05/11 02:36:19;;;;;;;9.23;6.27;;;13.20;99.90;;;;;;4174429;28;20693;-76
2023/05/11 02:38:25;;;;;;;9.60;6.20;;;13.20;99.90;;;;;;4180552;28;20204;-76
2023/05/11 02:40:31;;;;;;;9.50;6.43;;;13.20;99.90;;;;;;4183418;28;20217;-76
2023/05/11 02:42:38;;;;;;;9.00;6.03;;;13.20;99.90;;;;;;4184407;28;20207;-75
2023/05/11 02:44:45;;;;;;;8.93;6.10;;;13.20;99.90;;;;;;4184734;28;20256;-76
2023/05/11 02:46:48;;;;;;;8.63;6.20;;;13.20;99.90;;;;;;4187161;28;20216;-76
2023/05/11 02:48:54;;;;;;;8.67;6.17;;;13.20;99.90;;;;;;4186277;28;20226;-76
2023/05/11 02:50:58;;;;;;;9.10;5.90;;;13.20;99.90;;;;;;4179415;28;20208;-76
2023/05/11 02:53:06;;;;;;;8.70;6.00;;;13.20;99.90;;;;;;4173507;28;20848;-76
2023/05/11 02:55:13;;;;;;;8.63;5.40;;;13.20;99.90;;;;;;4168975;28;20873;-76
2023/05/11 02:57:15;;;;;;;7.53;5.50;;;13.10;99.90;;;;;;4169157;28;20214;-76
2023/05/11 02:59:17;;;;;;;8.53;5.50;;;13.10;99.90;;;;;;4170473;28;20645;-76
2023/05/11 03:01:20;;;;;;;7.77;5.30;;;13.10;99.90;;;;;;4170448;28;20324;-75
2023/05/11 03:03:22;;;;;;;8.10;5.43;;;13.10;99.90;;;;;;4172357;28;20226;-76
2023/05/11 03:05:24;;;;;;;9.27;5.90;;;13.10;99.90;;;;;;4175115;28;20231;-76
2023/05/11 03:07:26;;;;;;;9.43;6.00;;;13.10;99.90;;;;;;4173095;28;20240;-76
2023/05/11 03:09:28;;;;;;;9.73;6.30;;;13.10;99.90;;;;;;4174831;28;20216;-76
2023/05/11 03:11:32;;;;;;;8.60;5.93;;;13.10;99.90;;;;;;4172183;28;20223;-76
2023/05/11 03:13:34;;;;;;;7.93;5.47;;;13.10;99.90;;;;;;4171890;28;20204;-76
2023/05/11 03:15:37;;;;;;;7.47;5.00;;;13.10;99.90;;;;;;4169151;28;20238;-76
2023/05/11 03:17:40;;;;;;;8.47;5.00;;;13.10;99.90;;;;;;4167321;28;20207;-76
2023/05/11 03:19:43;;;;;;;6.33;4.77;;;13.10;99.90;;;;;;4167871;28;20232;-76
2023/05/11 03:21:46;;;;;;;7.07;4.53;;;13.10;99.90;;;;;;4173875;28;20214;-76
2023/05/11 03:23:49;;;;;;;7.43;5.03;;;13.10;99.90;;;;;;4172806;28;20284;-76
2023/05/11 03:25:51;;;;;;;8.17;5.40;;;13.10;99.90;;;;;;4168384;28;20758;-76
2023/05/11 03:27:56;;;;;;;9.07;5.50;;;13.10;99.90;;;;;;4171560;28;20214;-76
2023/05/11 03:30:00;;;;;;;7.93;5.80;;;13.10;99.90;;;;;;4172964;28;20269;-76
2023/05/11 03:32:02;;;;;;;8.83;6.07;;;13.10;99.90;;;;;;4170485;28;21479;-76
2023/05/11 03:34:04;;;;;;;9.23;6.20;;;13.10;99.90;;;;;;4169457;28;20623;-76
2023/05/11 03:36:09;;;;;;;10.90;6.90;;;13.10;99.90;;;;;;4169012;28;20571;-76
2023/05/11 03:38:12;;;;;;;12.03;7.37;;;13.20;99.90;;;;;;4170688;28;20222;-76
2023/05/11 03:40:16;;;;;;;13.00;7.87;;;13.20;99.90;;;;;;4170730;28;20211;-77
2023/05/11 03:42:20;;;;;;;12.67;7.93;;;13.20;99.90;;;;;;4172030;28;20210;-76
2023/05/11 03:44:25;;;;;;;13.83;8.37;;;13.20;99.90;;;;;;4169208;28;20590;-76
2023/05/11 03:46:28;;;;;;;14.27;8.57;;;13.20;99.90;;;;;;4171391;28;20227;-76
2023/05/11 03:48:31;;;;;;;14.87;8.87;;;13.20;99.90;;;;;;4169530;28;20810;-76
2023/05/11 03:50:33;;;;;;;13.63;8.07;;;13.20;99.90;;;;;;4172843;28;20276;-76
2023/05/11 03:52:39;;;;;;;14.00;8.77;;;13.20;99.90;;;;;;4171700;28;20739;-76
2023/05/11 03:54:41;;;;;;;15.57;9.00;;;13.20;99.90;;;;;;4169167;28;21151;-76
2023/05/11 03:56:44;;;;;;;16.50;9.70;;;13.20;99.90;;;;;;4172230;28;20210;-76
2023/05/11 03:58:46;;;;;;;16.13;8.50;;;13.20;99.90;;;;;;4166741;28;20209;-76
2023/05/11 04:00:49;;;;;;;16.87;9.13;;;13.20;99.90;;;;;;4165935;28;20199;-76
2023/05/11 04:02:52;;;;;;;16.87;9.37;;;13.30;99.90;;;;;;4170642;28;20208;-76
2023/05/11 04:04:54;;;;;;;14.33;9.00;;;13.30;99.90;;;;;;4170250;28;21043;-76
2023/05/11 04:06:56;;;;;;;16.03;9.57;;;13.30;99.90;;;;;;4171353;28;20210;-76
2023/05/11 04:08:58;;;;;;;18.17;10.23;;;13.30;99.90;;;;;;4168995;28;20901;-76
2023/05/11 04:11:00;;;;;;;16.47;9.63;;;13.30;99.90;;;;;;4162214;28;20217;-76
2023/05/11 04:13:02;;;;;;;16.87;10.50;;;13.30;99.90;;;;;;4168517;28;20920;-76
2023/05/11 04:15:05;;;;;;;16.47;9.37;;;13.30;99.90;;;;;;4169043;28;20227;-76
2023/05/11 04:17:09;;;;;;;17.37;10.23;;;13.30;99.90;;;;;;4166585;28;20251;-76
2023/05/11 04:19:11;;;;;;;17.63;9.97;;;13.30;99.90;;;;;;4164447;28;20257;-76
2023/05/11 04:21:13;;;;;;;17.47;9.87;;;13.40;99.90;;;;;;4170564;28;20210;-76
2023/05/11 04:23:16;;;;;;;18.67;9.70;;;13.40;99.90;;;;;;4170360;28;20235;-76
2023/05/11 04:25:20;;;;;;;15.60;9.50;;;13.40;99.90;;;;;;4173103;28;20227;-76
2023/05/11 04:27:21;;;;;;;18.13;9.23;;;13.40;99.90;;;;;;4171667;28;20209;-76
2023/05/11 04:29:23;;;;;;;15.77;9.60;;;13.40;99.90;;;;;;4169551;28;20225;-76
2023/05/11 04:31:29;;;;;;;15.40;9.30;;;13.40;99.90;;;;;;4169387;28;20212;-76
2023/05/11 04:33:32;;;;;;;15.40;9.40;;;13.50;99.90;;;;;;4170487;28;20212;-76
2023/05/11 04:35:34;;;;;;;14.50;9.23;;;13.50;99.90;;;;;;4169819;28;20224;-77
2023/05/11 04:37:36;;;;;;;16.00;9.40;;;13.50;99.90;;;;;;4171759;28;20301;-76
2023/05/11 04:39:38;;;;;;;14.37;8.77;;;13.50;99.90;;;;;;4173922;28;20259;-76
2023/05/11 04:41:40;;;;;;;13.70;8.30;;;13.50;99.90;;;;;;4171466;28;20211;-76
2023/05/11 04:43:42;;;;;;;13.70;8.50;;;13.50;99.90;;;;;;4171243;28;20233;-76
2023/05/11 04:45:48;;;;;;;12.43;8.30;;;13.50;99.90;;;;;;4169914;28;20632;-76
2023/05/11 04:47:50;;;;;;;12.40;8.47;;;13.60;99.90;;;;;;4169005;28;20661;-76
2023/05/11 04:49:53;;;;;;;11.93;7.60;;;13.60;99.90;;;;;;4169691;28;20577;-76
2023/05/11 04:51:55;;;;;;;11.70;8.07;;;13.70;99.90;;;;;;4168899;28;20222;-76
2023/05/11 04:53:57;;;;;;;12.17;7.83;;;13.70;99.90;;;;;;4168597;28;20261;-76
2023/05/11 04:55:59;;;;;;;11.43;7.73;;;13.80;99.90;;;;;;4168228;28;20723;-77
2023/05/11 04:58:01;;;;;;;10.37;7.33;;;13.80;99.90;;;;;;4171477;28;20223;-80
2023/05/11 05:00:04;;;;;;;10.37;7.17;;;13.80;99.90;;;;;;4169649;28;21489;-74
2023/05/11 05:02:06;;;;;;;10.00;6.77;;;13.90;99.90;;;;;;4171043;28;20248;-76
2023/05/11 05:04:08;;;;;;;9.43;6.80;;;13.90;99.90;;;;;;4168730;28;20399;-78
2023/05/11 05:06:11;;;;;;;10.97;7.20;;;13.90;99.90;;;;;;4170992;28;20245;-78
2023/05/11 05:08:14;;;;;;;9.67;6.77;;;14.00;99.90;;;;;;4173140;28;20214;-79
2023/05/11 05:10:16;;;;;;;9.97;6.50;;;14.00;99.90;;;;;;4173551;28;20255;-78
2023/05/11 05:12:18;;;;;;;9.27;6.43;;;14.00;99.90;;;;;;4174255;28;20210;-79
2023/05/11 05:14:20;;;;;;;8.70;6.10;;;14.10;99.90;;;;;;4173222;28;20207;-79
2023/05/11 05:16:22;;;;;;;9.13;5.93;;;14.10;99.90;;;;;;4172678;28;20233;-78
2023/05/11 05:18:24;;;;;;;9.00;6.13;;;14.10;99.90;;;;;;4172688;28;20218;-79
2023/05/11 05:20:26;;;;;;;7.80;5.93;;;14.10;99.90;;;;;;4172956;28;20210;-79
2023/05/11 05:22:29;;;;;;;8.93;6.27;;;14.10;99.90;;;;;;4170606;28;20261;-78
2023/05/11 05:24:31;;;;;;;10.23;6.70;;;14.10;99.90;;;;;;4171174;28;20589;-78
2023/05/11 05:26:33;;;;;;;9.83;6.53;;;14.10;99.90;;;;;;4207997;28;20659;-77
2023/05/11 05:28:35;;;;;;;10.10;6.40;;;14.10;99.90;;;;;;4169607;28;20209;-76
2023/05/11 05:30:37;;;;;;;10.50;6.70;;;14.20;99.90;;;;;;4167608;28;20263;-76
2023/05/11 05:32:39;;;;;;;9.70;6.97;;;14.20;99.90;;;;;;4172001;28;20228;-76
2023/05/11 05:34:42;;;;;;;10.80;7.20;;;14.20;99.90;;;;;;4171782;28;20210;-77
2023/05/11 05:36:44;;;;;;;9.23;6.77;;;14.20;99.90;;;;;;4175450;28;20221;-78
2023/05/11 05:38:47;;;;;;;8.73;6.70;;;14.30;99.90;;;;;;4169221;28;20208;-76
2023/05/11 05:40:50;;;;;;;11.00;7.20;;;14.30;99.90;;;;;;4167717;28;20373;-77
2023/05/11 05:42:52;;;;;;;10.50;7.33;;;14.30;99.90;;;;;;4172934;28;20214;-77
2023/05/11 05:44:54;;;;;;;7.93;6.40;;;14.40;99.90;;;;;;4175824;28;20249;-77
2023/05/11 05:46:56;;;;;;;9.83;6.77;;;14.40;99.90;;;;;;4169225;28;20210;-78
2023/05/11 05:48:58;;;;;;;9.20;6.90;;;14.40;99.90;;;;;;4170294;28;20210;-77
2023/05/11 05:51:00;;;;;;;9.20;7.00;;;14.50;99.90;;;;;;4173766;28;20231;-76
2023/05/11 05:53:02;;;;;;;7.87;6.50;;;14.50;99.90;;;;;;4171913;28;20318;-76
2023/05/11 05:55:06;;;;;;;9.70;6.83;;;14.60;99.90;;;;;;4173145;28;20209;-77
2023/05/11 05:57:08;;;;;;;9.07;6.97;;;14.60;99.90;;;;;;4172306;28;20206;-77
2023/05/11 05:59:12;;;;;;;9.97;7.00;;;14.70;99.90;;;;;;4171337;28;20217;-77
2023/05/11 06:01:14;;;;;;;9.60;7.20;;;14.70;99.90;;;;;;4170868;28;20218;-78
2023/05/11 06:03:16;;;;;;;9.43;7.03;;;14.80;99.90;;;;;;4168242;28;20203;-77
2023/05/11 06:05:18;;;;;;;8.13;6.30;;;14.80;99.90;;;;;;4168607;28;20232;-76
2023/05/11 06:07:19;;;;;;;9.13;6.80;;;14.90;99.90;;;;;;4169184;28;20290;-77
2023/05/11 06:09:21;;;;;;;8.13;5.87;;;14.90;99.90;;;;;;4169860;28;20211;-77
2023/05/11 06:11:26;;;;;;;7.97;6.23;;;14.90;99.90;;;;;;4170577;28;20202;-76
2023/05/11 06:13:28;;;;;;;7.53;5.77;;;15.00;99.90;;;;;;4170230;28;20853;-76
2023/05/11 06:15:30;;;;;;;7.33;5.77;;;15.00;99.90;;;;;;4170576;28;20235;-77
2023/05/11 06:17:32;;;;;;;9.23;6.70;;;15.10;99.90;;;;;;4172427;28;20210;-77
2023/05/11 06:19:34;;;;;;;7.30;5.67;;;15.10;99.90;;;;;;4174048;28;20214;-77
2023/05/11 06:21:35;;;;;;;8.90;6.33;;;15.20;99.90;;;;;;4166478;28;20594;-77
2023/05/11 06:23:37;;;;;;;8.80;6.53;;;15.30;99.90;;;;;;4171603;28;20672;-78
2023/05/11 06:25:39;;;;;;;6.83;5.43;;;15.30;99.90;;;;;;4171281;28;20636;-77
2023/05/11 06:27:43;;;;;;;7.60;5.97;;;15.40;99.90;;;;;;4172318;28;20601;-77
2023/05/11 06:29:45;;;;;;;8.40;6.40;;;15.50;99.90;;;;;;4169939;28;20249;-77
2023/05/11 06:31:51;;;;;;;8.37;6.73;;;15.60;99.90;;;;;;4168570;28;20851;-77
2023/05/11 06:33:53;;;;;;;7.90;5.97;;;15.60;99.90;;;;;;4172911;28;20301;-77
2023/05/11 06:35:55;;;;;;;9.23;6.50;;;15.60;99.90;;;;;;4171109;28;20226;-77
2023/05/11 06:37:57;;;;;;;9.80;6.37;;;15.70;99.90;;;;;;4171580;28;20221;-76
2023/05/11 06:39:59;;;;;;;9.10;6.50;;;15.80;99.90;;;;;;4172201;28;20203;-79
2023/05/11 06:42:01;;;;;;;7.97;6.13;;;15.80;99.90;;;;;;4169782;28;20203;-76
2023/05/11 06:44:05;;;;;;;8.60;6.17;;;15.90;99.90;;;;;;4170181;28;20674;-73
2023/05/11 06:46:07;;;;;;;8.00;6.60;;;15.90;99.90;;;;;;4170252;28;20239;-76
2023/05/11 06:48:09;;;;;;;8.23;6.50;;;15.90;99.90;;;;;;4168825;28;20211;-77
2023/05/11 06:50:11;;;;;;;10.30;6.43;;;16.00;99.90;;;;;;4169843;28;20261;-76
2023/05/11 06:52:13;;;;;;;9.50;6.50;;;16.00;99.90;;;;;;4169155;28;20704;-77
2023/05/11 06:54:15;;;;;;;14.07;7.77;;;16.00;99.90;;;;;;4172101;28;20200;-80
2023/05/11 06:56:17;;;;;;;20.13;9.10;;;16.00;99.90;;;;;;4170384;28;20975;-77
2023/05/11 06:58:20;;;;;;;41.93;15.80;;;16.00;99.90;;;;;;4168925;28;20212;-77
2023/05/11 07:00:23;;;;;;;40.43;13.90;;;16.00;99.90;;;;;;4186038;28;20209;-77
2023/05/11 07:02:26;;;;;;;46.77;15.80;;;16.00;99.90;;;;;;4170519;28;20277;-77
2023/05/11 07:04:28;;;;;;;49.23;16.60;;;16.00;99.90;;;;;;4173672;28;20207;-77
2023/05/11 07:06:30;;;;;;;36.03;14.13;;;16.00;99.90;;;;;;4171845;28;20227;-77
2023/05/11 07:08:32;;;;;;;30.67;12.60;;;16.00;99.90;;;;;;4175064;28;20210;-77
2023/05/11 07:10:34;;;;;;;21.50;10.13;;;16.00;99.90;;;;;;4175484;28;20211;-77
2023/05/11 07:12:36;;;;;;;16.97;9.37;;;16.00;99.90;;;;;;4169272;28;20211;-74
2023/05/11 07:14:38;;;;;;;16.80;9.53;;;16.00;99.90;;;;;;4168664;28;20213;-77
2023/05/11 07:16:42;;;;;;;16.57;8.17;;;16.00;99.90;;;;;;4170538;28;20232;-77
2023/05/11 07:18:43;;;;;;;11.17;7.87;;;16.10;99.90;;;;;;4169511;28;20212;-77
2023/05/11 07:20:48;;;;;;;11.33;7.90;;;16.10;99.90;;;;;;4173940;28;20216;-77
2023/05/11 07:22:50;;;;;;;10.13;7.30;;;16.10;99.90;;;;;;4172293;28;20216;-77
2023/05/11 07:24:52;;;;;;;8.60;6.83;;;16.20;99.90;;;;;;4170739;28;21024;-77
2023/05/11 07:26:56;;;;;;;9.83;7.40;;;16.20;99.90;;;;;;4170533;28;20208;-76
2023/05/11 07:28:58;;;;;;;9.70;8.23;;;16.30;99.90;;;;;;4172198;28;20242;-77
2023/05/11 07:31:00;;;;;;;13.57;9.10;;;16.30;99.90;;;;;;4170817;28;20198;-76
2023/05/11 07:33:03;;;;;;;12.80;8.47;;;16.40;99.90;;;;;;4171983;28;20257;-76
2023/05/11 07:35:06;;;;;;;10.63;8.00;;;16.30;99.90;;;;;;4174916;28;20201;-76
2023/05/11 07:37:08;;;;;;;12.00;7.73;;;16.30;99.90;;;;;;4167764;28;20626;-76
2023/05/11 07:39:10;;;;;;;12.20;8.40;;;16.30;99.90;;;;;;4169637;28;20207;-76
2023/05/11 07:41:12;;;;;;;10.47;7.63;;;16.40;99.90;;;;;;4166599;28;20199;-77
2023/05/11 07:43:14;;;;;;;12.03;7.63;;;16.40;99.90;;;;;;4166985;28;20689;-77
2023/05/11 07:45:16;;;;;;;9.70;7.50;;;16.50;99.90;;;;;;4168885;28;20286;-77
2023/05/11 07:47:19;;;;;;;9.67;7.13;;;16.60;99.90;;;;;;4168746;28;20220;-76
2023/05/11 07:49:23;;;;;;;9.87;7.43;;;16.60;99.90;;;;;;4170748;28;20926;-76
2023/05/11 07:51:25;;;;;;;9.67;6.97;;;16.70;99.90;;;;;;4168926;28;20208;-77
2023/05/11 07:53:27;;;;;;;10.83;7.37;;;16.70;99.90;;;;;;4169896;28;20292;-76
2023/05/11 07:55:29;;;;;;;8.67;6.70;;;16.80;99.90;;;;;;4169217;28;20221;-76
2023/05/11 07:57:31;;;;;;;9.27;7.13;;;16.90;99.90;;;;;;4169105;28;20301;-77
2023/05/11 07:59:33;;;;;;;10.07;7.37;;;16.90;99.90;;;;;;4168402;28;20214;-77
2023/05/11 08:01:35;;;;;;;8.63;6.57;;;17.00;99.90;;;;;;4170949;28;20718;-77
2023/05/11 08:03:37;;;;;;;10.90;8.07;;;17.00;99.90;;;;;;4169992;28;20228;-76
2023/05/11 08:05:40;;;;;;;9.87;7.03;;;17.10;99.90;;;;;;4167811;28;20254;-77
2023/05/11 08:07:42;;;;;;;9.13;6.87;;;17.10;99.90;;;;;;4167287;28;20259;-76
2023/05/11 08:09:44;;;;;;;11.17;8.03;;;17.20;99.90;;;;;;4168611;28;20202;-76
2023/05/11 08:11:46;;;;;;;10.23;7.73;;;17.30;99.90;;;;;;4166318;28;20685;-76
2023/05/11 08:13:48;;;;;;;9.20;7.20;;;17.30;99.90;;;;;;4170556;28;20324;-77
2023/05/11 08:15:50;;;;;;;9.63;6.77;;;17.30;99.90;;;;;;4166170;28;20233;-76
2023/05/11 08:17:53;;;;;;;10.47;6.80;;;17.30;99.90;;;;;;4169961;28;20211;-77
2023/05/11 08:19:55;;;;;;;9.90;6.60;;;17.40;99.90;;;;;;4168791;28;21216;-76
2023/05/11 08:21:58;;;;;;;9.27;6.33;;;17.50;99.90;;;;;;4167354;28;20275;-77
2023/05/11 08:24:01;;;;;;;9.17;6.80;;;17.50;99.90;;;;;;4168900;28;20700;-76
2023/05/11 08:26:03;;;;;;;8.93;6.83;;;17.60;99.90;;;;;;4172478;28;20312;-77
2023/05/11 08:28:05;;;;;;;7.63;6.37;;;17.60;99.90;;;;;;4166169;28;20223;-77
2023/05/11 08:30:08;;;;;;;7.83;6.27;;;17.60;99.90;;;;;;4169808;28;20741;-77
2023/05/11 08:32:10;;;;;;;9.30;6.43;;;17.60;99.90;;;;;;4168186;28;20273;-77
2023/05/11 08:34:12;;;;;;;6.57;5.87;;;17.60;99.90;;;;;;4168575;28;20736;-77
2023/05/11 08:36:14;;;;;;;8.70;6.07;;;17.60;99.90;;;;;;4169602;28;20744;-76
2023/05/11 08:38:18;;;;;;;7.33;6.03;;;17.70;99.90;;;;;;4170097;28;20210;-76
2023/05/11 08:40:24;;;;;;;8.43;6.70;;;17.70;99.90;;;;;;4169477;28;20206;-76
2023/05/11 08:42:29;;;;;;;8.27;5.83;;;17.80;99.90;;;;;;4169417;28;20279;-76
2023/05/11 08:44:33;;;;;;;7.60;5.47;;;17.90;99.90;;;;;;4168338;28;20243;-76
2023/05/11 08:46:36;;;;;;;7.00;5.50;;;17.90;99.90;;;;;;4168978;28;20226;-76
2023/05/11 08:48:41;;;;;;;7.93;6.10;;;18.00;99.90;;;;;;4167655;28;20301;-76
2023/05/11 08:50:44;;;;;;;6.47;5.33;;;18.10;99.90;;;;;;4166697;28;20306;-76
2023/05/11 08:52:46;;;;;;;8.13;5.70;;;18.10;99.90;;;;;;4168238;28;20207;-76
2023/05/11 08:54:49;;;;;;;7.20;5.60;;;18.20;99.90;;;;;;4169451;28;20218;-76
2023/05/11 08:56:51;;;;;;;7.03;5.43;;;18.20;99.90;;;;;;4168563;28;20289;-76
2023/05/11 08:58:55;;;;;;;7.30;6.03;;;18.40;99.90;;;;;;4167243;28;20305;-76
2023/05/11 09:00:59;;;;;;;7.03;5.73;;;18.50;99.90;;;;;;4167206;28;20249;-77
2023/05/11 09:03:01;;;;;;;6.33;5.00;;;18.50;99.90;;;;;;4166926;28;20298;-76
2023/05/11 09:05:03;;;;;;;6.20;4.87;;;18.50;99.90;;;;;;4166032;28;20211;-77
2023/05/11 09:07:06;;;;;;;7.17;5.20;;;18.40;99.90;;;;;;4167259;28;20213;-76
2023/05/11 09:09:08;;;;;;;6.07;4.73;;;18.50;99.90;;;;;;4168733;28;20271;-75
2023/05/11 09:11:12;;;;;;;6.90;5.80;;;18.50;99.90;;;;;;4177617;28;20276;-79
2023/05/11 09:13:14;;;;;;;7.83;6.03;;;18.50;99.90;;;;;;4170871;28;20214;-76
2023/05/11 09:15:16;;;;;;;6.60;5.27;;;18.50;99.90;;;;;;4172036;28;20226;-76
2023/05/11 09:17:18;;;;;;;7.50;6.17;;;18.50;99.90;;;;;;4169807;28;20206;-76
2023/05/11 09:19:20;;;;;;;7.77;6.60;;;18.60;99.90;;;;;;4169926;28;20210;-76
2023/05/11 09:21:25;;;;;;;7.17;5.80;;;18.70;99.90;;;;;;4170801;28;20272;-76
2023/05/11 09:23:27;;;;;;;7.70;5.47;;;18.70;99.90;;;;;;4170056;28;20210;-76
2023/05/11 09:25:33;;;;;;;6.90;5.60;;;18.80;99.90;;;;;;4170871;28;20238;-76
2023/05/11 09:27:41;;;;;;;6.03;4.67;;;18.80;99.90;;;;;;4172207;28;20238;-76
2023/05/11 09:29:43;;;;;;;5.33;4.20;;;18.90;99.90;;;;;;4170781;28;20221;-75
2023/05/11 09:31:46;;;;;;;3.87;3.43;;;18.90;99.90;;;;;;4173842;28;20215;-76
2023/05/11 09:33:48;;;;;;;5.17;3.83;;;18.90;99.90;;;;;;4168827;28;20219;-78
2023/05/11 09:35:50;;;;;;;4.00;3.50;;;18.90;99.90;;;;;;4172437;28;20215;-76
2023/05/11 09:38:03;;;;;;;5.83;4.03;;;18.90;99.90;;;;;;4171025;28;20543;-76
2023/05/11 09:40:10;;;;;;;5.40;4.10;;;19.10;99.90;;;;;;4173795;28;20210;-75
2023/05/11 09:42:13;;;;;;;5.07;3.90;;;19.20;99.90;;;;;;4171029;28;20696;-76
2023/05/11 09:44:17;;;;;;;5.20;4.17;;;19.30;99.90;;;;;;4174411;28;20207;-77
2023/05/11 09:46:24;;;;;;;4.70;4.20;;;19.30;99.90;;;;;;4172172;28;20233;-76
2023/05/11 09:48:33;;;;;;;4.87;3.97;;;19.40;99.90;;;;;;4172853;28;20293;-77
2023/05/11 09:50:36;;;;;;;6.97;3.77;;;19.40;99.90;;;;;;4168676;28;20217;-78
2023/05/11 09:52:49;;;;;;;5.03;3.60;;;19.50;99.90;;;;;;4170758;28;20211;-75
2023/05/11 09:54:54;;;;;;;4.83;4.03;;;19.40;99.90;;;;;;4172098;28;20206;-75
2023/05/11 09:56:57;;;;;;;4.53;4.10;;;19.40;99.90;;;;;;4168672;28;20198;-75
2023/05/11 09:58:59;;;;;;;4.70;4.00;;;19.30;99.90;;;;;;4168713;28;20214;-75
2023/05/11 10:01:02;;;;;;;4.77;4.10;;;19.30;99.90;;;;;;4170489;28;20261;-75
2023/05/11 10:03:06;;;;;;;6.27;4.30;;;19.40;99.90;;;;;;4172121;28;20195;-74
2023/05/11 10:05:13;;;;;;;4.70;3.70;;;19.50;99.90;;;;;;4170412;28;20235;-75
2023/05/11 10:07:25;;;;;;;3.93;3.20;;;19.50;99.90;;;;;;4170193;28;20218;-74
2023/05/11 10:09:27;;;;;;;3.13;2.47;;;19.60;99.90;;;;;;4173005;28;20199;-75
2023/05/11 10:11:29;;;;;;;3.20;2.70;;;19.70;99.90;;;;;;4171621;28;20215;-75
2023/05/11 10:13:33;;;;;;;2.93;2.60;;;19.80;99.90;;;;;;4169891;28;20280;-75
2023/05/11 10:15:36;;;;;;;3.33;2.70;;;19.90;99.90;;;;;;4169857;28;20285;-75
2023/05/11 10:17:43;;;;;;;3.20;2.80;;;20.00;99.90;;;;;;4167708;28;20260;-74
2023/05/11 10:19:45;;;;;;;3.07;2.70;;;20.20;99.90;;;;;;4171180;28;20215;-75
2023/05/11 10:21:48;;;;;;;3.07;2.67;;;20.30;99.90;;;;;;4169535;28;20626;-76
2023/05/11 10:23:50;;;;;;;3.47;3.10;;;20.40;99.90;;;;;;4170352;28;20207;-74
2023/05/11 10:25:53;;;;;;;5.10;2.97;;;20.50;99.90;;;;;;4170911;28;20223;-74
2023/05/11 10:27:57;;;;;;;4.20;3.37;;;20.60;99.90;;;;;;4169629;28;20210;-75
2023/05/11 10:29:59;;;;;;;3.87;3.37;;;20.70;99.90;;;;;;4171321;28;20302;-74
2023/05/11 10:32:03;;;;;;;4.73;4.00;;;20.80;99.90;;;;;;4170220;28;20262;-75
2023/05/11 10:34:07;;;;;;;4.90;3.90;;;20.90;99.90;;;;;;4169576;28;20264;-75
2023/05/11 10:36:12;;;;;;;5.07;3.97;;;20.90;99.90;;;;;;4169462;28;20283;-75
2023/05/11 10:38:15;;;;;;;6.70;5.07;;;20.90;99.90;;;;;;4165607;28;20218;-75
2023/05/11 10:40:17;;;;;;;6.63;5.27;;;21.00;99.90;;;;;;4168483;28;20287;-75